sensor_id;sensor_type;location;lat;lon;timestamp;P1;durP1;ratioP1;P2;durP2;ratioP2
47489;SDS011;33226;56.996;14.584;2022-09-09T00:03:54;3.80;;;1.30;;
47489;SDS011;33226;56.996;14.584;2022-09-09T00:06:30;3.60;;;1.20;;
47489;SDS011;33226;56.996;14.584;2022-09-09T00:09:16;3.05;;;1.08;;
47489;SDS011;33226;56.996;14.584;2022-09-09T00:17:22;1.98;;;1.10;;
47489;SDS011;33226;56.996;14.584;2022-09-09T00:25:53;4.95;;;1.48;;
47489;SDS011;33226;56.996;14.584;2022-09-09T00:29:14;1.52;;;1.00;;
47489;SDS011;33226;56.996;14.584;2022-09-09T00:31:47;2.95;;;1.00;;
47489;SDS011;33226;56.996;14.584;2022-09-09T00:34:17;4.57;;;1.20;;
47489;SDS011;33226;56.996;14.584;2022-09-09T00:36:46;1.48;;;1.00;;
47489;SDS011;33226;56.996;14.584;2022-09-09T00:39:25;3.38;;;1.10;;
47489;SDS011;33226;56.996;14.584;2022-09-09T00:44:38;1.63;;;1.00;;
47489;SDS011;33226;56.996;14.584;2022-09-09T00:58:53;2.53;;;1.02;;
47489;SDS011;33226;56.996;14.584;2022-09-09T01:01:49;1.60;;;1.10;;
47489;SDS011;33226;56.996;14.584;2022-09-09T01:04:18;1.60;;;1.02;;
47489;SDS011;33226;56.996;14.584;2022-09-09T01:07:03;1.27;;;0.93;;
47489;SDS011;33226;56.996;14.584;2022-09-09T01:09:50;2.38;;;1.10;;
47489;SDS011;33226;56.996;14.584;2022-09-09T01:12:42;3.63;;;1.00;;
47489;SDS011;33226;56.996;14.584;2022-09-09T01:15:10;1.27;;;1.10;;
47489;SDS011;33226;56.996;14.584;2022-09-09T01:20:18;3.15;;;1.10;;
47489;SDS011;33226;56.996;14.584;2022-09-09T01:23:09;2.40;;;1.13;;
47489;SDS011;33226;56.996;14.584;2022-09-09T01:28:28;3.65;;;1.10;;
47489;SDS011;33226;56.996;14.584;2022-09-09T01:30:56;1.20;;;0.90;;
47489;SDS011;33226;56.996;14.584;2022-09-09T01:33:23;2.92;;;1.30;;
47489;SDS011;33226;56.996;14.584;2022-09-09T01:35:53;4.60;;;1.30;;
47489;SDS011;33226;56.996;14.584;2022-09-09T01:38:25;2.53;;;1.33;;
47489;SDS011;33226;56.996;14.584;2022-09-09T01:40:52;3.40;;;1.15;;
47489;SDS011;33226;56.996;14.584;2022-09-09T01:43:20;1.92;;;1.00;;
47489;SDS011;33226;56.996;14.584;2022-09-09T01:45:46;4.93;;;1.25;;
47489;SDS011;33226;56.996;14.584;2022-09-09T01:48:16;5.18;;;1.25;;
47489;SDS011;33226;56.996;14.584;2022-09-09T01:50:43;3.55;;;1.17;;
47489;SDS011;33226;56.996;14.584;2022-09-09T01:53:09;1.80;;;1.40;;
47489;SDS011;33226;56.996;14.584;2022-09-09T01:55:38;4.00;;;1.27;;
47489;SDS011;33226;56.996;14.584;2022-09-09T01:58:17;2.00;;;1.10;;
47489;SDS011;33226;56.996;14.584;2022-09-09T02:00:56;2.75;;;1.35;;
47489;SDS011;33226;56.996;14.584;2022-09-09T02:03:31;1.88;;;1.17;;
47489;SDS011;33226;56.996;14.584;2022-09-09T02:06:05;2.90;;;1.38;;
47489;SDS011;33226;56.996;14.584;2022-09-09T02:08:57;2.20;;;1.23;;
47489;SDS011;33226;56.996;14.584;2022-09-09T02:11:27;1.63;;;1.00;;
47489;SDS011;33226;56.996;14.584;2022-09-09T02:13:55;4.32;;;1.52;;
47489;SDS011;33226;56.996;14.584;2022-09-09T02:16:27;1.88;;;1.25;;
47489;SDS011;33226;56.996;14.584;2022-09-09T02:18:59;5.82;;;1.77;;
47489;SDS011;33226;56.996;14.584;2022-09-09T02:21:29;1.63;;;1.38;;
47489;SDS011;33226;56.996;14.584;2022-09-09T02:23:56;2.63;;;1.45;;
47489;SDS011;33226;56.996;14.584;2022-09-09T02:26:25;3.65;;;1.30;;
47489;SDS011;33226;56.996;14.584;2022-09-09T02:28:52;5.35;;;1.50;;
47489;SDS011;33226;56.996;14.584;2022-09-09T02:31:21;4.35;;;1.60;;
47489;SDS011;33226;56.996;14.584;2022-09-09T02:33:52;7.00;;;1.60;;
47489;SDS011;33226;56.996;14.584;2022-09-09T02:36:21;2.25;;;1.25;;
47489;SDS011;33226;56.996;14.584;2022-09-09T02:38:51;2.38;;;1.33;;
47489;SDS011;33226;56.996;14.584;2022-09-09T02:41:31;7.45;;;1.65;;
47489;SDS011;33226;56.996;14.584;2022-09-09T02:44:00;3.88;;;1.42;;
47489;SDS011;33226;56.996;14.584;2022-09-09T02:52:26;2.00;;;1.80;;
47489;SDS011;33226;56.996;14.584;2022-09-09T02:55:13;2.63;;;1.40;;
47489;SDS011;33226;56.996;14.584;2022-09-09T02:57:55;4.47;;;1.45;;
47489;SDS011;33226;56.996;14.584;2022-09-09T03:00:22;3.70;;;1.52;;
47489;SDS011;33226;56.996;14.584;2022-09-09T03:02:49;5.05;;;1.70;;
47489;SDS011;33226;56.996;14.584;2022-09-09T03:05:16;6.35;;;1.65;;
47489;SDS011;33226;56.996;14.584;2022-09-09T03:07:41;8.40;;;1.67;;
47489;SDS011;33226;56.996;14.584;2022-09-09T03:10:07;3.83;;;1.50;;
47489;SDS011;33226;56.996;14.584;2022-09-09T03:12:33;2.67;;;1.63;;
47489;SDS011;33226;56.996;14.584;2022-09-09T03:14:59;6.82;;;1.60;;
47489;SDS011;33226;56.996;14.584;2022-09-09T03:17:24;4.03;;;1.55;;
47489;SDS011;33226;56.996;14.584;2022-09-09T03:19:50;2.75;;;1.70;;
47489;SDS011;33226;56.996;14.584;2022-09-09T03:22:17;6.80;;;1.40;;
47489;SDS011;33226;56.996;14.584;2022-09-09T03:24:43;4.78;;;1.98;;
47489;SDS011;33226;56.996;14.584;2022-09-09T03:27:08;3.35;;;2.00;;
47489;SDS011;33226;56.996;14.584;2022-09-09T03:29:34;5.13;;;1.90;;
47489;SDS011;33226;56.996;14.584;2022-09-09T03:32:00;3.33;;;1.45;;
47489;SDS011;33226;56.996;14.584;2022-09-09T03:34:25;2.75;;;1.55;;
47489;SDS011;33226;56.996;14.584;2022-09-09T03:36:51;4.03;;;1.50;;
47489;SDS011;33226;56.996;14.584;2022-09-09T03:39:16;2.83;;;1.70;;
47489;SDS011;33226;56.996;14.584;2022-09-09T03:41:42;7.68;;;1.95;;
47489;SDS011;33226;56.996;14.584;2022-09-09T03:44:11;5.47;;;1.58;;
47489;SDS011;33226;56.996;14.584;2022-09-09T03:46:36;5.45;;;1.80;;
47489;SDS011;33226;56.996;14.584;2022-09-09T03:49:03;4.95;;;1.70;;
47489;SDS011;33226;56.996;14.584;2022-09-09T03:51:29;2.50;;;1.50;;
47489;SDS011;33226;56.996;14.584;2022-09-09T03:53:55;8.48;;;2.78;;
47489;SDS011;33226;56.996;14.584;2022-09-09T03:56:23;4.70;;;1.90;;
47489;SDS011;33226;56.996;14.584;2022-09-09T03:58:49;2.78;;;1.67;;
47489;SDS011;33226;56.996;14.584;2022-09-09T04:01:14;4.00;;;1.55;;
47489;SDS011;33226;56.996;14.584;2022-09-09T04:03:42;5.68;;;1.60;;
47489;SDS011;33226;56.996;14.584;2022-09-09T04:06:10;5.82;;;2.20;;
47489;SDS011;33226;56.996;14.584;2022-09-09T04:08:38;1.88;;;1.60;;
47489;SDS011;33226;56.996;14.584;2022-09-09T04:11:04;5.15;;;1.90;;
47489;SDS011;33226;56.996;14.584;2022-09-09T04:13:31;3.95;;;1.83;;
47489;SDS011;33226;56.996;14.584;2022-09-09T04:15:59;5.38;;;1.90;;
47489;SDS011;33226;56.996;14.584;2022-09-09T04:18:26;5.25;;;1.83;;
47489;SDS011;33226;56.996;14.584;2022-09-09T04:20:53;2.72;;;1.92;;
47489;SDS011;33226;56.996;14.584;2022-09-09T04:23:22;4.80;;;1.95;;
47489;SDS011;33226;56.996;14.584;2022-09-09T04:25:50;4.30;;;1.77;;
47489;SDS011;33226;56.996;14.584;2022-09-09T04:28:18;3.17;;;2.00;;
47489;SDS011;33226;56.996;14.584;2022-09-09T04:30:45;5.25;;;2.58;;
47489;SDS011;33226;56.996;14.584;2022-09-09T04:33:11;5.55;;;1.90;;
47489;SDS011;33226;56.996;14.584;2022-09-09T04:35:38;4.85;;;1.90;;
47489;SDS011;33226;56.996;14.584;2022-09-09T04:38:04;6.07;;;1.88;;
47489;SDS011;33226;56.996;14.584;2022-09-09T04:40:34;6.60;;;2.35;;
47489;SDS011;33226;56.996;14.584;2022-09-09T04:43:00;3.75;;;1.90;;
47489;SDS011;33226;56.996;14.584;2022-09-09T04:45:29;4.22;;;1.75;;
47489;SDS011;33226;56.996;14.584;2022-09-09T04:47:55;3.47;;;2.03;;
47489;SDS011;33226;56.996;14.584;2022-09-09T04:50:21;4.25;;;1.92;;
47489;SDS011;33226;56.996;14.584;2022-09-09T04:52:47;7.03;;;2.20;;
47489;SDS011;33226;56.996;14.584;2022-09-09T04:55:13;5.85;;;1.92;;
47489;SDS011;33226;56.996;14.584;2022-09-09T04:57:39;4.95;;;1.80;;
47489;SDS011;33226;56.996;14.584;2022-09-09T05:00:05;6.57;;;2.50;;
47489;SDS011;33226;56.996;14.584;2022-09-09T05:02:32;6.60;;;1.92;;
47489;SDS011;33226;56.996;14.584;2022-09-09T05:04:58;2.63;;;1.75;;
47489;SDS011;33226;56.996;14.584;2022-09-09T05:07:24;5.63;;;1.83;;
47489;SDS011;33226;56.996;14.584;2022-09-09T05:09:52;3.10;;;1.92;;
47489;SDS011;33226;56.996;14.584;2022-09-09T05:12:17;4.53;;;1.95;;
47489;SDS011;33226;56.996;14.584;2022-09-09T05:14:43;8.95;;;2.25;;
47489;SDS011;33226;56.996;14.584;2022-09-09T05:17:09;5.18;;;1.67;;
47489;SDS011;33226;56.996;14.584;2022-09-09T05:19:35;4.35;;;1.90;;
47489;SDS011;33226;56.996;14.584;2022-09-09T05:22:01;5.30;;;1.77;;
47489;SDS011;33226;56.996;14.584;2022-09-09T05:24:27;8.63;;;1.95;;
47489;SDS011;33226;56.996;14.584;2022-09-09T05:26:53;2.90;;;1.67;;
47489;SDS011;33226;56.996;14.584;2022-09-09T05:29:18;6.55;;;1.90;;
47489;SDS011;33226;56.996;14.584;2022-09-09T05:31:44;7.35;;;1.70;;
47489;SDS011;33226;56.996;14.584;2022-09-09T05:34:12;10.38;;;1.90;;
47489;SDS011;33226;56.996;14.584;2022-09-09T05:36:37;3.75;;;1.48;;
47489;SDS011;33226;56.996;14.584;2022-09-09T05:39:03;6.22;;;1.67;;
47489;SDS011;33226;56.996;14.584;2022-09-09T05:41:29;4.47;;;1.70;;
47489;SDS011;33226;56.996;14.584;2022-09-09T05:43:55;3.40;;;1.40;;
47489;SDS011;33226;56.996;14.584;2022-09-09T05:46:21;3.28;;;1.90;;
47489;SDS011;33226;56.996;14.584;2022-09-09T05:48:49;4.07;;;1.50;;
47489;SDS011;33226;56.996;14.584;2022-09-09T05:51:23;4.88;;;1.63;;
47489;SDS011;33226;56.996;14.584;2022-09-09T05:53:51;3.42;;;1.42;;
47489;SDS011;33226;56.996;14.584;2022-09-09T05:56:24;3.63;;;1.80;;
47489;SDS011;33226;56.996;14.584;2022-09-09T05:58:54;4.07;;;1.70;;
47489;SDS011;33226;56.996;14.584;2022-09-09T06:01:31;7.50;;;1.88;;
47489;SDS011;33226;56.996;14.584;2022-09-09T06:03:58;7.38;;;2.10;;
47489;SDS011;33226;56.996;14.584;2022-09-09T06:06:27;3.75;;;1.70;;
47489;SDS011;33226;56.996;14.584;2022-09-09T06:08:57;4.57;;;1.98;;
47489;SDS011;33226;56.996;14.584;2022-09-09T06:11:24;4.65;;;1.77;;
47489;SDS011;33226;56.996;14.584;2022-09-09T06:13:51;5.10;;;2.05;;
47489;SDS011;33226;56.996;14.584;2022-09-09T06:16:19;5.18;;;1.75;;
47489;SDS011;33226;56.996;14.584;2022-09-09T06:18:49;7.40;;;1.85;;
47489;SDS011;33226;56.996;14.584;2022-09-09T06:21:19;6.68;;;2.17;;
47489;SDS011;33226;56.996;14.584;2022-09-09T06:23:52;4.93;;;1.83;;
47489;SDS011;33226;56.996;14.584;2022-09-09T06:26:19;4.50;;;1.88;;
47489;SDS011;33226;56.996;14.584;2022-09-09T06:28:46;6.03;;;1.92;;
47489;SDS011;33226;56.996;14.584;2022-09-09T06:31:14;4.18;;;1.77;;
47489;SDS011;33226;56.996;14.584;2022-09-09T06:33:47;6.15;;;1.70;;
47489;SDS011;33226;56.996;14.584;2022-09-09T06:36:18;7.63;;;2.33;;
47489;SDS011;33226;56.996;14.584;2022-09-09T06:38:45;5.20;;;1.83;;
47489;SDS011;33226;56.996;14.584;2022-09-09T06:41:11;8.13;;;2.15;;
47489;SDS011;33226;56.996;14.584;2022-09-09T06:43:38;4.50;;;2.05;;
47489;SDS011;33226;56.996;14.584;2022-09-09T06:48:40;5.88;;;2.33;;
47489;SDS011;33226;56.996;14.584;2022-09-09T06:51:08;7.93;;;2.10;;
47489;SDS011;33226;56.996;14.584;2022-09-09T06:53:36;2.97;;;1.80;;
47489;SDS011;33226;56.996;14.584;2022-09-09T06:58:35;5.70;;;1.75;;
47489;SDS011;33226;56.996;14.584;2022-09-09T07:01:10;6.53;;;1.90;;
47489;SDS011;33226;56.996;14.584;2022-09-09T07:03:37;7.15;;;2.00;;
47489;SDS011;33226;56.996;14.584;2022-09-09T07:06:04;8.23;;;1.90;;
47489;SDS011;33226;56.996;14.584;2022-09-09T07:08:31;5.38;;;2.10;;
47489;SDS011;33226;56.996;14.584;2022-09-09T07:11:03;4.35;;;1.88;;
47489;SDS011;33226;56.996;14.584;2022-09-09T07:13:30;5.10;;;2.10;;
47489;SDS011;33226;56.996;14.584;2022-09-09T07:16:03;5.18;;;1.90;;
47489;SDS011;33226;56.996;14.584;2022-09-09T07:18:35;6.05;;;2.00;;
47489;SDS011;33226;56.996;14.584;2022-09-09T07:21:02;8.40;;;2.00;;
47489;SDS011;33226;56.996;14.584;2022-09-09T07:23:29;3.42;;;1.90;;
47489;SDS011;33226;56.996;14.584;2022-09-09T07:25:55;3.50;;;1.88;;
47489;SDS011;33226;56.996;14.584;2022-09-09T07:28:22;7.85;;;2.38;;
47489;SDS011;33226;56.996;14.584;2022-09-09T07:30:55;5.53;;;2.40;;
47489;SDS011;33226;56.996;14.584;2022-09-09T07:33:22;5.53;;;1.95;;
47489;SDS011;33226;56.996;14.584;2022-09-09T07:35:49;8.00;;;2.08;;
47489;SDS011;33226;56.996;14.584;2022-09-09T07:38:15;5.90;;;2.08;;
47489;SDS011;33226;56.996;14.584;2022-09-09T07:40:40;5.80;;;2.30;;
47489;SDS011;33226;56.996;14.584;2022-09-09T07:43:06;4.90;;;2.00;;
47489;SDS011;33226;56.996;14.584;2022-09-09T07:45:33;4.10;;;1.92;;
47489;SDS011;33226;56.996;14.584;2022-09-09T07:47:59;4.32;;;2.10;;
47489;SDS011;33226;56.996;14.584;2022-09-09T07:50:25;4.50;;;1.90;;
47489;SDS011;33226;56.996;14.584;2022-09-09T07:52:51;5.82;;;2.08;;
47489;SDS011;33226;56.996;14.584;2022-09-09T07:55:18;6.60;;;2.47;;
47489;SDS011;33226;56.996;14.584;2022-09-09T07:57:44;7.43;;;2.15;;
47489;SDS011;33226;56.996;14.584;2022-09-09T08:00:10;6.72;;;2.00;;
47489;SDS011;33226;56.996;14.584;2022-09-09T08:02:37;4.93;;;2.17;;
47489;SDS011;33226;56.996;14.584;2022-09-09T08:05:02;5.38;;;1.92;;
47489;SDS011;33226;56.996;14.584;2022-09-09T08:07:28;4.35;;;1.85;;
47489;SDS011;33226;56.996;14.584;2022-09-09T08:09:54;5.28;;;1.98;;
47489;SDS011;33226;56.996;14.584;2022-09-09T08:12:20;4.05;;;1.83;;
47489;SDS011;33226;56.996;14.584;2022-09-09T08:14:46;7.22;;;2.17;;
47489;SDS011;33226;56.996;14.584;2022-09-09T08:17:13;5.72;;;2.28;;
47489;SDS011;33226;56.996;14.584;2022-09-09T08:19:39;5.95;;;2.17;;
47489;SDS011;33226;56.996;14.584;2022-09-09T08:22:05;3.20;;;1.90;;
47489;SDS011;33226;56.996;14.584;2022-09-09T08:24:32;8.75;;;2.30;;
47489;SDS011;33226;56.996;14.584;2022-09-09T08:26:58;6.32;;;2.25;;
47489;SDS011;33226;56.996;14.584;2022-09-09T08:29:24;3.90;;;2.15;;
47489;SDS011;33226;56.996;14.584;2022-09-09T08:31:51;5.53;;;2.20;;
47489;SDS011;33226;56.996;14.584;2022-09-09T08:34:19;5.88;;;2.10;;
47489;SDS011;33226;56.996;14.584;2022-09-09T08:36:45;4.43;;;1.80;;
47489;SDS011;33226;56.996;14.584;2022-09-09T08:39:16;5.75;;;2.20;;
47489;SDS011;33226;56.996;14.584;2022-09-09T08:55:51;7.22;;;2.53;;
47489;SDS011;33226;56.996;14.584;2022-09-09T08:58:29;7.35;;;2.38;;
47489;SDS011;33226;56.996;14.584;2022-09-09T09:08:36;8.52;;;2.65;;
47489;SDS011;33226;56.996;14.584;2022-09-09T09:11:19;5.35;;;2.15;;
47489;SDS011;33226;56.996;14.584;2022-09-09T09:13:51;3.78;;;2.08;;
47489;SDS011;33226;56.996;14.584;2022-09-09T09:16:26;3.88;;;2.25;;
47489;SDS011;33226;56.996;14.584;2022-09-09T09:18:55;6.68;;;2.38;;
47489;SDS011;33226;56.996;14.584;2022-09-09T09:21:25;6.57;;;2.83;;
47489;SDS011;33226;56.996;14.584;2022-09-09T09:24:00;4.57;;;2.63;;
47489;SDS011;33226;56.996;14.584;2022-09-09T09:26:34;6.65;;;2.35;;
47489;SDS011;33226;56.996;14.584;2022-09-09T09:29:01;9.30;;;2.67;;
47489;SDS011;33226;56.996;14.584;2022-09-09T09:31:37;6.35;;;2.70;;
47489;SDS011;33226;56.996;14.584;2022-09-09T09:34:03;6.90;;;2.60;;
47489;SDS011;33226;56.996;14.584;2022-09-09T09:36:39;7.97;;;2.55;;
47489;SDS011;33226;56.996;14.584;2022-09-09T09:39:22;4.05;;;2.63;;
47489;SDS011;33226;56.996;14.584;2022-09-09T09:41:52;6.32;;;2.70;;
47489;SDS011;33226;56.996;14.584;2022-09-09T09:44:23;6.43;;;2.83;;
47489;SDS011;33226;56.996;14.584;2022-09-09T09:49:32;5.75;;;2.53;;
47489;SDS011;33226;56.996;14.584;2022-09-09T09:52:02;4.30;;;2.58;;
47489;SDS011;33226;56.996;14.584;2022-09-09T09:54:29;5.63;;;2.38;;
47489;SDS011;33226;56.996;14.584;2022-09-09T09:57:07;5.28;;;2.72;;
47489;SDS011;33226;56.996;14.584;2022-09-09T09:59:37;4.32;;;2.53;;
47489;SDS011;33226;56.996;14.584;2022-09-09T10:02:16;5.40;;;2.45;;
47489;SDS011;33226;56.996;14.584;2022-09-09T10:04:59;7.28;;;2.72;;
47489;SDS011;33226;56.996;14.584;2022-09-09T10:07:26;7.38;;;2.67;;
47489;SDS011;33226;56.996;14.584;2022-09-09T10:09:55;5.57;;;2.75;;
47489;SDS011;33226;56.996;14.584;2022-09-09T10:18:05;5.68;;;2.70;;
47489;SDS011;33226;56.996;14.584;2022-09-09T10:23:50;3.95;;;2.53;;
47489;SDS011;33226;56.996;14.584;2022-09-09T10:28:55;4.97;;;2.92;;
47489;SDS011;33226;56.996;14.584;2022-09-09T10:37:36;7.20;;;2.53;;
47489;SDS011;33226;56.996;14.584;2022-09-09T10:40:15;7.57;;;3.15;;
47489;SDS011;33226;56.996;14.584;2022-09-09T10:42:44;4.38;;;2.45;;
47489;SDS011;33226;56.996;14.584;2022-09-09T10:45:23;5.20;;;2.92;;
47489;SDS011;33226;56.996;14.584;2022-09-09T10:48:12;4.78;;;2.60;;
47489;SDS011;33226;56.996;14.584;2022-09-09T10:56:35;9.13;;;3.00;;
47489;SDS011;33226;56.996;14.584;2022-09-09T10:59:10;3.60;;;2.42;;
47489;SDS011;33226;56.996;14.584;2022-09-09T11:01:46;4.43;;;2.83;;
47489;SDS011;33226;56.996;14.584;2022-09-09T11:04:28;6.70;;;3.17;;
47489;SDS011;33226;56.996;14.584;2022-09-09T11:07:05;4.63;;;2.80;;
47489;SDS011;33226;56.996;14.584;2022-09-09T11:09:36;9.57;;;3.40;;
47489;SDS011;33226;56.996;14.584;2022-09-09T11:12:09;7.03;;;2.90;;
47489;SDS011;33226;56.996;14.584;2022-09-09T11:14:44;5.07;;;2.70;;
47489;SDS011;33226;56.996;14.584;2022-09-09T11:17:16;4.65;;;2.60;;
47489;SDS011;33226;56.996;14.584;2022-09-09T11:19:45;5.75;;;2.90;;
47489;SDS011;33226;56.996;14.584;2022-09-09T11:24:47;6.10;;;2.78;;
47489;SDS011;33226;56.996;14.584;2022-09-09T11:36:28;3.90;;;2.83;;
47489;SDS011;33226;56.996;14.584;2022-09-09T11:38:53;4.90;;;2.70;;
47489;SDS011;33226;56.996;14.584;2022-09-09T11:41:45;4.82;;;2.92;;
47489;SDS011;33226;56.996;14.584;2022-09-09T11:44:11;3.85;;;2.60;;
47489;SDS011;33226;56.996;14.584;2022-09-09T11:46:41;5.45;;;2.90;;
47489;SDS011;33226;56.996;14.584;2022-09-09T11:49:28;5.07;;;2.50;;
47489;SDS011;33226;56.996;14.584;2022-09-09T11:55:09;3.10;;;2.70;;
47489;SDS011;33226;56.996;14.584;2022-09-09T11:57:37;4.05;;;2.78;;
47489;SDS011;33226;56.996;14.584;2022-09-09T12:00:04;4.72;;;2.42;;
47489;SDS011;33226;56.996;14.584;2022-09-09T12:02:30;3.95;;;2.63;;
47489;SDS011;33226;56.996;14.584;2022-09-09T12:07:48;3.83;;;2.50;;
47489;SDS011;33226;56.996;14.584;2022-09-09T12:10:28;4.43;;;2.63;;
47489;SDS011;33226;56.996;14.584;2022-09-09T12:13:07;4.65;;;2.88;;
47489;SDS011;33226;56.996;14.584;2022-09-09T12:15:54;6.45;;;2.75;;
47489;SDS011;33226;56.996;14.584;2022-09-09T12:18:37;3.83;;;2.45;;
47489;SDS011;33226;56.996;14.584;2022-09-09T12:21:21;5.30;;;2.70;;
47489;SDS011;33226;56.996;14.584;2022-09-09T12:24:01;5.10;;;2.38;;
47489;SDS011;33226;56.996;14.584;2022-09-09T12:29:34;3.58;;;2.50;;
47489;SDS011;33226;56.996;14.584;2022-09-09T12:32:17;3.28;;;2.28;;
47489;SDS011;33226;56.996;14.584;2022-09-09T12:34:48;5.03;;;2.20;;
47489;SDS011;33226;56.996;14.584;2022-09-09T12:37:40;3.72;;;2.70;;
47489;SDS011;33226;56.996;14.584;2022-09-09T12:40:29;4.70;;;2.28;;
47489;SDS011;33226;56.996;14.584;2022-09-09T12:42:57;4.57;;;2.70;;
47489;SDS011;33226;56.996;14.584;2022-09-09T12:45:27;5.20;;;2.30;;
47489;SDS011;33226;56.996;14.584;2022-09-09T12:50:31;3.60;;;2.38;;
47489;SDS011;33226;56.996;14.584;2022-09-09T12:53:10;3.63;;;2.30;;
47489;SDS011;33226;56.996;14.584;2022-09-09T12:55:48;3.75;;;2.33;;
47489;SDS011;33226;56.996;14.584;2022-09-09T12:58:25;5.78;;;2.65;;
47489;SDS011;33226;56.996;14.584;2022-09-09T13:00:53;4.50;;;2.60;;
47489;SDS011;33226;56.996;14.584;2022-09-09T13:03:21;4.00;;;2.50;;
47489;SDS011;33226;56.996;14.584;2022-09-09T13:05:48;4.85;;;2.85;;
47489;SDS011;33226;56.996;14.584;2022-09-09T13:08:14;5.20;;;2.65;;
47489;SDS011;33226;56.996;14.584;2022-09-09T13:10:56;6.72;;;2.83;;
47489;SDS011;33226;56.996;14.584;2022-09-09T13:13:28;6.50;;;2.63;;
47489;SDS011;33226;56.996;14.584;2022-09-09T13:16:01;5.47;;;3.03;;
47489;SDS011;33226;56.996;14.584;2022-09-09T13:18:29;3.50;;;2.40;;
47489;SDS011;33226;56.996;14.584;2022-09-09T13:20:58;4.88;;;2.85;;
47489;SDS011;33226;56.996;14.584;2022-09-09T13:23:32;5.68;;;2.78;;
47489;SDS011;33226;56.996;14.584;2022-09-09T13:28:46;3.42;;;2.30;;
47489;SDS011;33226;56.996;14.584;2022-09-09T13:31:28;6.82;;;2.72;;
47489;SDS011;33226;56.996;14.584;2022-09-09T13:33:56;6.63;;;2.78;;
47489;SDS011;33226;56.996;14.584;2022-09-09T13:36:32;3.80;;;2.60;;
47489;SDS011;33226;56.996;14.584;2022-09-09T13:39:00;4.35;;;2.40;;
47489;SDS011;33226;56.996;14.584;2022-09-09T13:41:42;4.18;;;2.40;;
47489;SDS011;33226;56.996;14.584;2022-09-09T13:44:23;4.50;;;2.33;;
47489;SDS011;33226;56.996;14.584;2022-09-09T13:49:28;4.80;;;2.70;;
47489;SDS011;33226;56.996;14.584;2022-09-09T13:52:03;5.47;;;2.30;;
47489;SDS011;33226;56.996;14.584;2022-09-09T13:54:33;4.82;;;2.58;;
47489;SDS011;33226;56.996;14.584;2022-09-09T13:56:59;4.07;;;2.60;;
47489;SDS011;33226;56.996;14.584;2022-09-09T13:59:26;5.18;;;2.75;;
47489;SDS011;33226;56.996;14.584;2022-09-09T14:01:52;4.13;;;2.67;;
47489;SDS011;33226;56.996;14.584;2022-09-09T14:04:18;6.32;;;2.53;;
47489;SDS011;33226;56.996;14.584;2022-09-09T14:06:47;4.05;;;2.60;;
47489;SDS011;33226;56.996;14.584;2022-09-09T14:09:14;3.55;;;2.08;;
47489;SDS011;33226;56.996;14.584;2022-09-09T14:11:41;4.05;;;2.70;;
47489;SDS011;33226;56.996;14.584;2022-09-09T14:14:08;6.13;;;2.35;;
47489;SDS011;33226;56.996;14.584;2022-09-09T14:16:33;4.65;;;3.05;;
47489;SDS011;33226;56.996;14.584;2022-09-09T14:18:59;6.80;;;2.58;;
47489;SDS011;33226;56.996;14.584;2022-09-09T14:21:26;4.20;;;2.42;;
47489;SDS011;33226;56.996;14.584;2022-09-09T14:23:52;4.10;;;2.78;;
47489;SDS011;33226;56.996;14.584;2022-09-09T14:26:20;2.95;;;2.55;;
47489;SDS011;33226;56.996;14.584;2022-09-09T14:28:46;5.22;;;2.83;;
47489;SDS011;33226;56.996;14.584;2022-09-09T14:31:12;4.20;;;2.75;;
47489;SDS011;33226;56.996;14.584;2022-09-09T14:33:38;4.43;;;2.40;;
47489;SDS011;33226;56.996;14.584;2022-09-09T14:36:04;3.92;;;2.75;;
47489;SDS011;33226;56.996;14.584;2022-09-09T14:38:35;3.72;;;2.20;;
47489;SDS011;33226;56.996;14.584;2022-09-09T14:41:05;4.05;;;2.28;;
47489;SDS011;33226;56.996;14.584;2022-09-09T14:43:31;3.08;;;2.53;;
47489;SDS011;33226;56.996;14.584;2022-09-09T14:45:57;4.53;;;2.50;;
47489;SDS011;33226;56.996;14.584;2022-09-09T14:48:33;3.67;;;2.78;;
47489;SDS011;33226;56.996;14.584;2022-09-09T14:53:32;7.70;;;2.47;;
47489;SDS011;33226;56.996;14.584;2022-09-09T14:56:04;4.03;;;2.70;;
47489;SDS011;33226;56.996;14.584;2022-09-09T14:58:30;4.45;;;2.92;;
47489;SDS011;33226;56.996;14.584;2022-09-09T15:01:01;3.50;;;2.67;;
47489;SDS011;33226;56.996;14.584;2022-09-09T15:03:30;4.32;;;3.03;;
47489;SDS011;33226;56.996;14.584;2022-09-09T15:05:56;3.10;;;2.38;;
47489;SDS011;33226;56.996;14.584;2022-09-09T15:08:23;3.60;;;2.10;;
47489;SDS011;33226;56.996;14.584;2022-09-09T15:10:49;6.00;;;2.50;;
47489;SDS011;33226;56.996;14.584;2022-09-09T15:13:15;3.67;;;2.70;;
47489;SDS011;33226;56.996;14.584;2022-09-09T15:15:44;2.42;;;2.10;;
47489;SDS011;33226;56.996;14.584;2022-09-09T15:18:09;3.60;;;2.15;;
47489;SDS011;33226;56.996;14.584;2022-09-09T15:20:35;2.72;;;2.00;;
47489;SDS011;33226;56.996;14.584;2022-09-09T15:23:02;4.07;;;2.00;;
47489;SDS011;33226;56.996;14.584;2022-09-09T15:25:28;2.03;;;1.77;;
47489;SDS011;33226;56.996;14.584;2022-09-09T15:27:54;3.30;;;2.13;;
47489;SDS011;33226;56.996;14.584;2022-09-09T15:30:21;2.38;;;2.00;;
47489;SDS011;33226;56.996;14.584;2022-09-09T15:32:46;3.65;;;2.03;;
47489;SDS011;33226;56.996;14.584;2022-09-09T15:35:12;2.28;;;2.08;;
47489;SDS011;33226;56.996;14.584;2022-09-09T15:37:37;2.28;;;1.95;;
47489;SDS011;33226;56.996;14.584;2022-09-09T15:40:03;2.90;;;1.70;;
47489;SDS011;33226;56.996;14.584;2022-09-09T15:42:29;3.17;;;2.00;;
47489;SDS011;33226;56.996;14.584;2022-09-09T15:44:55;2.35;;;2.10;;
47489;SDS011;33226;56.996;14.584;2022-09-09T15:47:20;2.90;;;1.98;;
47489;SDS011;33226;56.996;14.584;2022-09-09T15:49:46;2.47;;;1.80;;
47489;SDS011;33226;56.996;14.584;2022-09-09T15:52:12;2.20;;;2.00;;
47489;SDS011;33226;56.996;14.584;2022-09-09T15:54:38;4.78;;;1.80;;
47489;SDS011;33226;56.996;14.584;2022-09-09T15:57:04;2.20;;;2.00;;
47489;SDS011;33226;56.996;14.584;2022-09-09T15:59:32;1.80;;;1.70;;
47489;SDS011;33226;56.996;14.584;2022-09-09T16:01:59;3.60;;;2.03;;
47489;SDS011;33226;56.996;14.584;2022-09-09T16:04:27;2.00;;;1.90;;
47489;SDS011;33226;56.996;14.584;2022-09-09T16:06:58;2.20;;;2.10;;
47489;SDS011;33226;56.996;14.584;2022-09-09T16:09:26;3.13;;;1.83;;
47489;SDS011;33226;56.996;14.584;2022-09-09T16:11:52;4.18;;;2.08;;
47489;SDS011;33226;56.996;14.584;2022-09-09T16:14:21;2.10;;;1.85;;
47489;SDS011;33226;56.996;14.584;2022-09-09T16:16:47;1.83;;;1.73;;
47489;SDS011;33226;56.996;14.584;2022-09-09T16:19:13;5.03;;;2.15;;
47489;SDS011;33226;56.996;14.584;2022-09-09T16:21:39;2.30;;;1.85;;
47489;SDS011;33226;56.996;14.584;2022-09-09T16:24:07;2.15;;;1.88;;
47489;SDS011;33226;56.996;14.584;2022-09-09T16:26:35;2.13;;;1.80;;
47489;SDS011;33226;56.996;14.584;2022-09-09T16:29:02;4.03;;;1.95;;
47489;SDS011;33226;56.996;14.584;2022-09-09T16:31:29;3.13;;;2.30;;
47489;SDS011;33226;56.996;14.584;2022-09-09T16:33:56;1.95;;;1.75;;
47489;SDS011;33226;56.996;14.584;2022-09-09T16:36:23;2.15;;;1.90;;
47489;SDS011;33226;56.996;14.584;2022-09-09T16:38:59;3.22;;;2.00;;
47489;SDS011;33226;56.996;14.584;2022-09-09T16:41:30;3.30;;;1.90;;
47489;SDS011;33226;56.996;14.584;2022-09-09T16:43:57;2.67;;;2.47;;
47489;SDS011;33226;56.996;14.584;2022-09-09T16:46:28;2.53;;;2.03;;
47489;SDS011;33226;56.996;14.584;2022-09-09T16:48:58;2.22;;;2.10;;
47489;SDS011;33226;56.996;14.584;2022-09-09T16:51:32;2.28;;;1.80;;
47489;SDS011;33226;56.996;14.584;2022-09-09T16:54:03;3.80;;;2.22;;